Map

Track Data

SID SEASON NUMBER BASIN SUBBASIN NAME ISO_TIME NATURE LAT LON WMO_WIND WMO_PRES WMO_AGENCY TRACK_TYPE DIST2LAND LANDFALL IFLAG USA_AGENCY USA_ATCF_ID USA_LAT USA_LON USA_RECORD USA_STATUS USA_WIND USA_PRES USA_SSHS USA_R34_NE USA_R34_SE USA_R34_SW USA_R34_NW USA_R50_NE USA_R50_SE USA_R50_SW USA_R50_NW USA_R64_NE USA_R64_SE USA_R64_SW USA_R64_NW USA_POCI USA_ROCI USA_RMW USA_EYE TOKYO_LAT TOKYO_LON TOKYO_GRADE TOKYO_WIND TOKYO_PRES TOKYO_R50_DIR TOKYO_R50_LONG TOKYO_R50_SHORT TOKYO_R30_DIR TOKYO_R30_LONG TOKYO_R30_SHORT TOKYO_LAND CMA_LAT CMA_LON CMA_CAT CMA_WIND CMA_PRES HKO_LAT HKO_LON HKO_CAT HKO_WIND HKO_PRES NEWDELHI_LAT NEWDELHI_LON NEWDELHI_GRADE NEWDELHI_WIND NEWDELHI_PRES NEWDELHI_CI NEWDELHI_DP NEWDELHI_POCI REUNION_LAT REUNION_LON REUNION_TYPE REUNION_WIND REUNION_PRES REUNION_TNUM REUNION_CI REUNION_RMW REUNION_R34_NE REUNION_R34_SE REUNION_R34_SW REUNION_R34_NW REUNION_R50_NE REUNION_R50_SE REUNION_R50_SW REUNION_R50_NW REUNION_R64_NE REUNION_R64_SE REUNION_R64_SW REUNION_R64_NW BOM_LAT BOM_LON BOM_TYPE BOM_WIND BOM_PRES BOM_TNUM BOM_CI BOM_RMW BOM_R34_NE BOM_R34_SE BOM_R34_SW BOM_R34_NW BOM_R50_NE BOM_R50_SE BOM_R50_SW BOM_R50_NW BOM_R64_NE BOM_R64_SE BOM_R64_SW BOM_R64_NW BOM_ROCI BOM_POCI BOM_EYE BOM_POS_METHOD BOM_PRES_METHOD NADI_LAT NADI_LON NADI_CAT NADI_WIND NADI_PRES WELLINGTON_LAT WELLINGTON_LON WELLINGTON_WIND WELLINGTON_PRES DS824_LAT DS824_LON DS824_STAGE DS824_WIND DS824_PRES TD9636_LAT TD9636_LON TD9636_STAGE TD9636_WIND TD9636_PRES TD9635_LAT TD9635_LON TD9635_WIND TD9635_PRES TD9635_ROCI NEUMANN_LAT NEUMANN_LON NEUMANN_CLASS NEUMANN_WIND NEUMANN_PRES MLC_LAT MLC_LON MLC_CLASS MLC_WIND MLC_PRES USA_GUST BOM_GUST BOM_GUST_PER REUNION_GUST REUNION_GUST_PER USA_SEAHGT USA_SEARAD_NE USA_SEARAD_SE USA_SEARAD_SW USA_SEARAD_NW STORM_SPEED STORM_DIR
1887229N18087 1887 35 NI BB NOT_NAMED 1887-08-17 00:00:00 TS 18.2000 86.8000 main 203 203 _________O____ -1 18.2000 86.8000 TC 30 0 0
1887229N18087 1887 35 NI BB NOT_NAMED 1887-08-17 03:00:00 TS 18.2000 86.8000 main 203 203 _________PO___ -1 18.2000 86.8000 TC 30 18.2000 86.8000 1 0 0
1887229N18087 1887 35 NI BB NOT_NAMED 1887-08-17 06:00:00 TS 18.2031 86.7932 main 203 203 _________OP___ -1 18.2000 86.8000 TC 30 18.2079 86.7829 1 0 0
1887229N18087 1887 35 NI BB NOT_NAMED 1887-08-17 09:00:00 TS 18.2054 86.7883 main 203 203 _________PP___ -1 18.2000 86.8000 TC 30 18.2126 86.7726 1 0 0
1887229N18087 1887 35 NI BB NOT_NAMED 1887-08-17 12:00:00 TS 18.2055 86.7880 main 203 203 _________OP___ -1 18.2000 86.8000 TC 30 18.2110 86.7760 1 0 0
1887229N18087 1887 35 NI BB NOT_NAMED 1887-08-17 15:00:00 TS 18.2000 86.8000 main 203 203 _________PO___ -1 18.2000 86.8000 TC 30 18.2000 86.8000 1 0 113
1887229N18087 1887 35 NI BB NOT_NAMED 1887-08-17 18:00:00 TS 18.1898 86.8223 main 203 203 _________OP___ -1 18.2000 86.8000 TC 30 18.1796 86.8446 1 1 118
1887229N18087 1887 35 NI BB NOT_NAMED 1887-08-17 21:00:00 TS 18.1736 86.8561 main 207 203 _________PP___ -1 18.1850 86.8300 TC 30 18.1623 86.8822 1 0 0
1887229N18087 1887 35 NI BB NOT_NAMED 1887-08-18 00:00:00 TS 18.1819 86.8394 main 203 200 _________OP___ -1 18.2000 86.8000 TC 30 18.1638 86.8788 1 1 297
1887229N18087 1887 35 NI BB NOT_NAMED 1887-08-18 03:00:00 TS 18.2387 86.7262 main 200 183 _________PO___ -1 18.2774 86.6525 TC 30 18.2000 86.8000 1 4 296
1887229N18087 1887 35 NI BB NOT_NAMED 1887-08-18 06:00:00 TS 18.3426 86.5001 main 183 149 _________OP___ -1 18.4000 86.4000 TC 30 18.2852 86.6002 1 6 295
1887229N18087 1887 35 NI BB NOT_NAMED 1887-08-18 09:00:00 TS 18.4740 86.1914 main 149 123 _________PP___ -1 18.5426 86.0576 TC 30 18.4054 86.3252 1 7 295
1887229N18087 1887 35 NI BB NOT_NAMED 1887-08-18 12:00:00 TS 18.6239 85.8563 main 123 88 _________OP___ -1 18.7000 85.7000 TC 30 18.5478 86.0126 1 7 297
1887229N18087 1887 35 NI BB NOT_NAMED 1887-08-18 15:00:00 TS 18.7749 85.5675 main 88 61 _________PO___ -1 18.8499 85.4349 TC 30 18.7000 85.7000 1 6 300
1887229N18087 1887 35 NI BB NOT_NAMED 1887-08-18 18:00:00 TS 18.9153 85.3193 main 61 38 _________OP___ -1 19.0000 85.2000 TC 30 18.8305 85.4385 1 6 301
1887229N18087 1887 35 NI BB NOT_NAMED 1887-08-18 21:00:00 TS 19.0562 85.0673 main 30 0 _________PP___ -1 19.1425 84.9499 TC 30 18.9699 85.1847 1 6 302
1887229N18087 1887 35 NI BB NOT_NAMED 1887-08-19 00:00:00 TS 19.2121 84.8193 main 0 0 _________OP___ -1 19.3000 84.7000 TC 30 19.1243 84.9385 1 6 306
1887229N18087 1887 35 NI BB NOT_NAMED 1887-08-19 03:00:00 TS 19.3925 84.5712 main 0 0 _________PO___ -1 19.4850 84.4425 TC 30 19.3000 84.7000 1 6 310
1887229N18087 1887 35 NI BB NOT_NAMED 1887-08-19 06:00:00 TS 19.5996 84.3318 main 0 0 _________OP___ -1 19.7000 84.2000 TC 30 19.4993 84.4637 1 6 315
1887229N18087 1887 35 NI BB NOT_NAMED 1887-08-19 09:00:00 TS 19.8312 84.1137 main 0 0 _________PP___ -1 19.9425 83.9924 TC 30 19.7199 84.2349 1 6 320
1887229N18087 1887 35 NI BB NOT_NAMED 1887-08-19 12:00:00 TS 20.0778 83.9068 main 0 0 _________OP___ -1 20.2000 83.8000 TC 30 19.9556 84.0136 1 6 322
1887229N18087 1887 35 NI BB NOT_NAMED 1887-08-19 15:00:00 TS 20.3250 83.7000 main 0 0 _________PO___ -1 20.4500 83.5999 TC 30 20.2000 83.8000 1 6 322
1887229N18087 1887 35 NI BB NOT_NAMED 1887-08-19 18:00:00 TS 20.5559 83.5107 main 0 0 _________OP___ -1 20.7000 83.4000 TC 30 20.4479 83.5937 1 6 323
1887229N18087 1887 35 NI BB NOT_NAMED 1887-08-19 21:00:00 TS 20.7986 83.3158 main 0 0 _________PP___ -1 20.9500 83.2001 TC 30 20.6977 83.3930 1 6 323
1887229N18087 1887 35 NI BB NOT_NAMED 1887-08-20 00:00:00 TS 21.0324 83.1305 main 0 0 _________OP___ -1 21.2000 83.0000 TC 30 20.9486 83.1958 1 5 324
1887229N18087 1887 35 NI BB NOT_NAMED 1887-08-20 03:00:00 NR 21.2000 83.0000 main 0 __________O___ -1 TC 21.2000 83.0000 1 4 325

About IBTrACS Database

This database is a web-friendly format of International Best Track Archive for Climate Stewardship (IBTrACS), a global best track data archive curated by NOAA dating back to 1842.

Updated: 2021-12-03